createdAt,value
2017-11-06T00:02:00.922Z,14.23
2017-11-06T00:04:28.457Z,19.60
2017-11-06T00:06:55.956Z,28.00
2017-11-06T00:09:23.460Z,19.47
2017-11-06T00:11:51.054Z,19.87
2017-11-06T00:14:18.589Z,25.03
2017-11-06T00:16:46.091Z,21.50
2017-11-06T00:19:13.802Z,18.30
2017-11-06T00:21:41.291Z,18.37
2017-11-06T00:24:08.784Z,11.70
2017-11-06T00:26:36.312Z,15.03
2017-11-06T00:29:03.799Z,17.90
2017-11-06T00:31:31.283Z,17.93
2017-11-06T00:33:58.816Z,21.70
2017-11-06T00:36:26.311Z,19.50
2017-11-06T00:38:53.795Z,23.03
2017-11-06T00:41:21.526Z,17.43
2017-11-06T00:43:49.097Z,20.93
2017-11-06T00:46:16.601Z,18.27
2017-11-06T00:48:44.280Z,14.87
2017-11-06T00:51:12.061Z,13.57
2017-11-06T00:53:39.637Z,19.53
2017-11-06T00:56:07.193Z,17.17
2017-11-06T00:58:34.709Z,12.47
2017-11-06T01:01:02.317Z,18.83
2017-11-06T01:03:29.812Z,18.50
2017-11-06T01:05:57.334Z,16.60
2017-11-06T01:08:24.824Z,14.10
2017-11-06T01:10:52.311Z,18.40
2017-11-06T01:13:19.842Z,19.13
2017-11-06T01:15:47.458Z,20.10
2017-11-06T01:18:15.020Z,11.93
2017-11-06T01:20:42.678Z,17.53
2017-11-06T01:23:10.162Z,18.10
2017-11-06T01:25:37.678Z,14.17
2017-11-06T01:28:05.264Z,17.07
2017-11-06T01:30:32.816Z,16.33
2017-11-06T01:33:00.400Z,24.43
2017-11-06T01:35:27.893Z,20.20
2017-11-06T01:37:55.600Z,12.20
2017-11-06T01:40:23.093Z,18.17
2017-11-06T01:42:50.584Z,15.17
2017-11-06T01:45:18.276Z,20.73
2017-11-06T01:47:45.764Z,16.40
2017-11-06T01:50:13.264Z,15.20
2017-11-06T01:52:40.849Z,17.33
2017-11-06T01:55:08.329Z,11.90
2017-11-06T01:57:36.751Z,15.20
2017-11-06T02:00:07.224Z,16.33
2017-11-06T02:02:34.714Z,18.80
2017-11-06T02:05:02.204Z,12.30
2017-11-06T02:07:29.903Z,15.60
2017-11-06T02:09:57.455Z,17.20
2017-11-06T02:12:24.945Z,14.07
2017-11-06T02:14:52.699Z,14.93
2017-11-06T02:17:20.177Z,13.90
2017-11-06T02:19:47.659Z,12.07
2017-11-06T02:22:15.218Z,16.10
2017-11-06T02:24:42.812Z,13.83
2017-11-06T02:27:10.304Z,13.37
2017-11-06T02:29:37.827Z,13.07
2017-11-06T02:32:05.307Z,20.43
2017-11-06T02:34:32.794Z,7.77
2017-11-06T02:37:00.308Z,8.30
2017-11-06T02:39:27.824Z,14.80
2017-11-06T02:41:55.316Z,17.27
2017-11-06T02:44:22.828Z,9.10
2017-11-06T02:46:50.314Z,12.43
2017-11-06T02:49:17.792Z,9.07
2017-11-06T02:51:45.338Z,12.90
2017-11-06T02:54:12.822Z,9.63
2017-11-06T02:56:40.365Z,21.43
2017-11-06T02:59:07.876Z,17.20
2017-11-06T03:01:35.402Z,13.50
2017-11-06T03:04:02.928Z,13.70
2017-11-06T03:06:30.505Z,9.23
2017-11-06T03:08:57.991Z,9.63
2017-11-06T03:11:25.522Z,11.33
2017-11-06T03:13:53.076Z,14.13
2017-11-06T03:16:20.560Z,17.00
2017-11-06T03:18:48.083Z,12.43
2017-11-06T03:21:15.560Z,10.73
2017-11-06T03:23:43.048Z,22.37
2017-11-06T03:26:10.584Z,13.43
2017-11-06T03:28:38.064Z,9.90
2017-11-06T03:31:05.599Z,12.03
2017-11-06T03:33:33.080Z,9.53
2017-11-06T03:36:00.566Z,13.13
2017-11-06T03:38:28.087Z,21.80
2017-11-06T03:40:55.565Z,13.87
2017-11-06T03:43:23.068Z,13.90
2017-11-06T03:45:50.597Z,14.60
2017-11-06T03:48:18.076Z,9.43
2017-11-06T03:50:45.557Z,12.63
2017-11-06T03:53:13.096Z,11.27
2017-11-06T03:55:40.653Z,14.27
2017-11-06T03:58:08.135Z,14.03
2017-11-06T04:00:35.667Z,11.17
2017-11-06T04:03:03.156Z,11.30
2017-11-06T04:05:30.644Z,17.63
2017-11-06T04:07:58.256Z,17.13
2017-11-06T04:10:25.772Z,11.83
2017-11-06T04:12:53.261Z,12.63
2017-11-06T04:15:20.753Z,10.63
2017-11-06T04:17:48.385Z,13.93
2017-11-06T04:20:15.882Z,14.50
2017-11-06T04:22:43.364Z,9.57
2017-11-06T04:25:11.066Z,14.70
2017-11-06T04:27:38.619Z,28.37
2017-11-06T04:30:06.104Z,13.23
2017-11-06T04:32:33.749Z,12.63
2017-11-06T04:35:01.240Z,13.83
2017-11-06T04:37:28.724Z,10.83
2017-11-06T04:39:56.252Z,22.97
2017-11-06T04:42:25.549Z,11.37
2017-11-06T04:44:58.960Z,15.40
2017-11-06T04:47:26.444Z,13.03
2017-11-06T04:49:53.934Z,12.60
2017-11-06T04:52:21.492Z,8.10
2017-11-06T04:54:48.987Z,13.00
2017-11-06T04:57:16.472Z,18.27
2017-11-06T04:59:44.159Z,11.70
2017-11-06T05:02:11.747Z,13.70
2017-11-06T05:04:39.231Z,16.60
2017-11-06T05:07:06.845Z,8.87
2017-11-06T05:09:34.338Z,41.97
2017-11-06T05:12:01.825Z,9.50
2017-11-06T05:14:29.359Z,8.40
2017-11-06T05:16:56.875Z,18.10
2017-11-06T05:19:24.357Z,24.63
2017-11-06T05:21:51.910Z,14.73
2017-11-06T05:24:19.395Z,14.50
2017-11-06T05:26:46.883Z,23.23
2017-11-06T05:29:14.571Z,10.17
2017-11-06T05:31:42.076Z,13.93
2017-11-06T05:34:09.582Z,10.97
2017-11-06T05:36:37.144Z,11.60
2017-11-06T05:39:04.628Z,14.03
2017-11-06T05:41:32.123Z,14.87
2017-11-06T05:43:59.834Z,13.23
2017-11-06T05:46:27.388Z,10.03
2017-11-06T05:48:54.873Z,16.97
2017-11-06T05:51:22.610Z,14.60
2017-11-06T05:53:50.166Z,31.77
2017-11-06T05:56:17.651Z,18.97
2017-11-06T05:58:45.151Z,15.20
2017-11-06T06:01:12.679Z,15.87
2017-11-06T06:03:40.208Z,23.23
2017-11-06T06:06:08.069Z,19.00
2017-11-06T06:08:35.607Z,12.70
2017-11-06T06:11:03.185Z,16.07
2017-11-06T06:13:30.679Z,31.07
2017-11-06T06:15:58.204Z,17.00
2017-11-06T06:18:25.747Z,26.43
2017-11-06T06:20:53.240Z,19.27
2017-11-06T06:23:20.775Z,13.17
2017-11-06T06:25:48.268Z,20.57
2017-11-06T06:28:15.756Z,16.70
2017-11-06T06:30:43.265Z,19.67
2017-11-06T06:33:10.755Z,19.13
2017-11-06T06:35:38.273Z,12.73
2017-11-06T06:38:05.761Z,18.67
2017-11-06T06:40:33.276Z,13.63
2017-11-06T06:43:00.803Z,15.30
2017-11-06T06:45:28.295Z,19.53
2017-11-06T06:47:55.979Z,18.50
2017-11-06T06:50:23.504Z,19.57
2017-11-06T06:52:50.984Z,18.23
2017-11-06T06:55:18.555Z,14.60
2017-11-06T06:57:46.090Z,24.23
2017-11-06T07:00:13.580Z,14.40
2017-11-06T07:02:41.111Z,18.20
2017-11-06T07:05:08.648Z,18.50
2017-11-06T07:07:36.220Z,21.00
2017-11-06T07:10:03.716Z,17.63
2017-11-06T07:12:31.459Z,18.03
2017-11-06T07:14:58.946Z,25.07
2017-11-06T07:17:26.438Z,25.10
2017-11-06T07:19:54.028Z,21.30
2017-11-06T07:22:21.582Z,17.53
2017-11-06T07:24:49.072Z,22.77
2017-11-06T07:27:16.758Z,19.93
2017-11-06T07:29:44.247Z,17.43
2017-11-06T07:32:11.742Z,13.13
2017-11-06T07:34:39.396Z,29.73
2017-11-06T07:37:06.886Z,15.77
2017-11-06T07:39:34.364Z,14.90
2017-11-06T07:42:01.977Z,17.60
2017-11-06T07:44:29.462Z,25.50
2017-11-06T07:46:56.947Z,17.70
2017-11-06T07:49:24.494Z,28.83
2017-11-06T07:51:51.983Z,15.77
2017-11-06T07:54:19.481Z,13.40
2017-11-06T07:56:47.108Z,12.97
2017-11-06T07:59:14.602Z,21.90
2017-11-06T08:01:42.117Z,14.60
2017-11-06T08:04:09.677Z,22.17
2017-11-06T08:06:37.160Z,22.57
2017-11-06T08:09:04.639Z,12.60
2017-11-06T08:11:32.175Z,14.60
2017-11-06T08:13:59.661Z,32.77
2017-11-06T08:16:27.199Z,19.27
2017-11-06T08:18:54.706Z,16.90
2017-11-06T08:21:22.205Z,16.50
2017-11-06T08:23:49.742Z,26.70
2017-11-06T08:26:17.237Z,13.00
2017-11-06T08:28:44.726Z,14.63
2017-11-06T08:31:12.239Z,13.13
2017-11-06T08:33:39.756Z,14.30
2017-11-06T08:36:07.342Z,17.17
2017-11-06T08:38:34.827Z,14.77
2017-11-06T08:41:02.378Z,16.13
2017-11-06T08:43:29.950Z,15.20
2017-11-06T08:45:57.439Z,12.83
2017-11-06T08:48:24.973Z,24.00
2017-11-06T08:50:52.491Z,16.43
2017-11-06T08:53:19.983Z,17.10
2017-11-06T08:55:47.500Z,17.67
2017-11-06T08:58:14.987Z,13.70
2017-11-06T09:00:42.518Z,16.20
2017-11-06T09:03:10.012Z,18.03
2017-11-06T09:05:37.499Z,18.20
2017-11-06T09:08:05.020Z,17.43
2017-11-06T09:10:32.505Z,29.90
2017-11-06T09:13:00.036Z,16.93
2017-11-06T09:15:27.527Z,15.17
2017-11-06T09:17:55.034Z,20.87
2017-11-06T09:20:22.553Z,16.43
2017-11-06T09:22:50.050Z,21.17
2017-11-06T09:25:17.544Z,18.03
2017-11-06T09:27:45.167Z,15.33
2017-11-06T09:30:12.660Z,24.03
2017-11-06T09:32:40.201Z,20.20
2017-11-06T09:35:07.688Z,28.30
2017-11-06T09:37:35.181Z,17.33
2017-11-06T09:40:02.695Z,21.27
2017-11-06T09:42:30.183Z,14.33
2017-11-06T09:44:57.669Z,16.57
2017-11-06T09:47:25.192Z,15.47
2017-11-06T09:49:52.676Z,29.30
2017-11-06T09:52:20.240Z,15.77
2017-11-06T09:54:47.773Z,21.67
2017-11-06T09:57:15.254Z,15.43
2017-11-06T09:59:42.828Z,14.77
2017-11-06T10:02:10.504Z,33.77
2017-11-06T10:04:38.002Z,17.13
2017-11-06T10:07:05.490Z,16.23
2017-11-06T10:09:33.039Z,24.77
2017-11-06T10:12:00.523Z,41.77
2017-11-06T10:14:28.097Z,19.43
2017-11-06T10:16:55.631Z,18.43
2017-11-06T10:19:23.200Z,19.03
2017-11-06T10:21:50.691Z,13.80
2017-11-06T10:24:18.313Z,15.67
2017-11-06T10:26:45.804Z,14.30
2017-11-06T10:29:13.292Z,15.53
2017-11-06T10:31:40.880Z,16.60
2017-11-06T10:34:08.363Z,22.10
2017-11-06T10:36:35.853Z,18.87
2017-11-06T10:39:03.371Z,16.80
2017-11-06T10:41:30.920Z,15.63
2017-11-06T10:43:58.415Z,17.00
2017-11-06T10:46:25.897Z,16.57
2017-11-06T10:48:53.412Z,16.70
2017-11-06T10:51:20.899Z,12.73
2017-11-06T10:53:48.383Z,13.33
2017-11-06T10:56:15.908Z,15.87
2017-11-06T10:58:43.398Z,12.40
2017-11-06T11:01:10.883Z,16.97
2017-11-06T11:03:38.417Z,20.20
2017-11-06T11:06:06.008Z,125.90
2017-11-06T11:08:33.497Z,30.43
2017-11-06T11:11:01.026Z,96.87
2017-11-06T11:13:28.517Z,21.60
2017-11-06T11:15:56.008Z,16.77
2017-11-06T11:18:23.698Z,14.90
2017-11-06T11:20:51.582Z,120.87
2017-11-06T11:23:19.064Z,14.57
2017-11-06T11:25:46.732Z,23.30
2017-11-06T11:28:14.249Z,14.27
2017-11-06T11:30:41.730Z,13.43
2017-11-06T11:33:09.261Z,16.63
2017-11-06T11:35:36.748Z,12.60
2017-11-06T11:38:04.235Z,24.83
2017-11-06T11:40:31.836Z,12.63
2017-11-06T11:42:59.338Z,13.40
2017-11-06T11:45:26.848Z,21.83
2017-11-06T11:47:54.366Z,10.93
2017-11-06T11:50:21.885Z,18.23
2017-11-06T11:52:49.377Z,15.70
2017-11-06T11:55:16.948Z,9.43
2017-11-06T11:57:44.435Z,12.13
2017-11-06T12:00:11.960Z,13.87
2017-11-06T12:02:39.492Z,13.30
2017-11-06T12:05:06.991Z,18.50
2017-11-06T12:07:34.481Z,17.40
2017-11-06T12:10:02.022Z,14.40
2017-11-06T12:12:29.505Z,10.60
2017-11-06T12:14:57.054Z,14.40
2017-11-06T12:17:24.572Z,24.70
2017-11-06T12:19:52.061Z,11.80
2017-11-06T12:22:19.607Z,15.80
2017-11-06T12:24:47.104Z,12.63
2017-11-06T12:27:14.587Z,16.40
2017-11-06T12:29:42.219Z,12.77
2017-11-06T12:32:09.710Z,14.93
2017-11-06T12:34:37.203Z,10.93
2017-11-06T12:37:04.903Z,58.20
2017-11-06T12:39:32.396Z,10.20
2017-11-06T12:41:59.875Z,6.43
2017-11-06T12:44:27.402Z,16.80
2017-11-06T12:46:54.902Z,32.13
2017-11-06T12:49:22.390Z,10.80
2017-11-06T12:51:49.909Z,25.43
2017-11-06T12:54:17.403Z,26.33
2017-11-06T12:56:44.886Z,17.60
2017-11-06T12:59:12.501Z,17.53
2017-11-06T13:01:39.996Z,14.77
2017-11-06T13:04:07.491Z,14.00
2017-11-06T13:06:35.015Z,10.47
2017-11-06T13:09:02.540Z,9.73
2017-11-06T13:11:30.033Z,15.83
2017-11-06T13:13:57.578Z,10.00
2017-11-06T13:16:25.059Z,8.90
2017-11-06T13:18:52.636Z,12.00
2017-11-06T13:21:20.228Z,9.90
2017-11-06T13:23:47.708Z,8.40
2017-11-06T13:26:15.184Z,8.63
2017-11-06T13:28:42.753Z,9.17
2017-11-06T13:31:10.264Z,7.97
2017-11-06T13:33:37.765Z,10.40
2017-11-06T13:36:05.287Z,10.80
2017-11-06T13:38:32.772Z,7.97
2017-11-06T13:41:00.314Z,13.20
2017-11-06T13:43:27.823Z,6.00
2017-11-06T13:45:55.300Z,7.93
2017-11-06T13:48:22.792Z,6.13
2017-11-06T13:50:50.319Z,7.53
2017-11-06T13:53:17.805Z,10.13
2017-11-06T13:55:45.346Z,5.00
2017-11-06T13:58:12.868Z,8.27
2017-11-06T14:00:40.370Z,8.50
2017-11-06T14:03:07.865Z,11.07
2017-11-06T14:05:35.372Z,9.80
2017-11-06T14:08:02.911Z,11.97
2017-11-06T14:10:30.391Z,9.93
2017-11-06T14:12:57.891Z,10.13
2017-11-06T14:15:25.423Z,6.20
2017-11-06T14:17:52.906Z,8.93
2017-11-06T14:20:20.393Z,15.23
2017-11-06T14:22:48.003Z,9.30
2017-11-06T14:25:15.543Z,9.13
2017-11-06T14:27:43.050Z,5.87
2017-11-06T14:30:10.577Z,5.70
2017-11-06T14:32:38.053Z,9.00
2017-11-06T14:35:05.560Z,9.40
2017-11-06T14:37:33.087Z,10.30
2017-11-06T14:40:00.592Z,9.07
2017-11-06T14:42:28.069Z,8.17
2017-11-06T14:44:55.620Z,53.57
2017-11-06T14:47:23.185Z,9.40
2017-11-06T14:49:50.674Z,10.30
2017-11-06T14:52:18.180Z,13.30
2017-11-06T14:54:45.848Z,13.13
2017-11-06T14:57:13.331Z,16.43
2017-11-06T14:59:40.873Z,9.27
2017-11-06T15:02:08.385Z,8.47
2017-11-06T15:04:35.867Z,9.80
2017-11-06T15:07:03.359Z,10.73
2017-11-06T15:09:30.898Z,13.20
2017-11-06T15:11:58.457Z,13.27
2017-11-06T15:14:26.006Z,13.43
2017-11-06T15:16:53.515Z,8.30
2017-11-06T15:19:20.997Z,18.63
2017-11-06T15:21:49.292Z,10.33
2017-11-06T15:24:16.864Z,10.43
2017-11-06T15:26:44.345Z,10.03
2017-11-06T15:29:11.856Z,8.03
2017-11-06T15:31:39.355Z,13.70
2017-11-06T15:34:06.836Z,8.50
2017-11-06T15:36:34.370Z,14.13
2017-11-06T15:39:01.857Z,8.53
2017-11-06T15:41:30.589Z,9.17
2017-11-06T15:43:58.111Z,10.30
2017-11-06T15:46:25.614Z,10.30
2017-11-06T15:48:53.095Z,13.40
2017-11-06T15:51:20.837Z,15.10
2017-11-06T15:53:48.324Z,11.63
2017-11-06T15:56:15.854Z,15.93
2017-11-06T15:58:43.387Z,10.03
2017-11-06T16:01:10.874Z,25.03
2017-11-06T16:03:38.368Z,14.00
2017-11-06T16:06:05.984Z,13.03
2017-11-06T16:08:33.465Z,17.37
2017-11-06T16:11:00.947Z,14.43
2017-11-06T16:13:28.654Z,14.27
2017-11-06T16:15:56.143Z,13.40
2017-11-06T16:18:23.636Z,10.90
2017-11-06T16:20:51.178Z,17.17
2017-11-06T16:23:18.662Z,25.57
2017-11-06T16:25:46.175Z,12.53
2017-11-06T16:28:13.696Z,16.40
2017-11-06T16:30:41.264Z,13.63
2017-11-06T16:33:08.756Z,18.33
2017-11-06T16:35:36.276Z,13.73
2017-11-06T16:38:03.776Z,16.57
2017-11-06T16:40:31.308Z,16.17
2017-11-06T16:42:58.858Z,24.97
2017-11-06T16:45:26.422Z,18.30
2017-11-06T16:47:53.943Z,15.77
2017-11-06T16:50:21.440Z,20.63
2017-11-06T16:52:48.922Z,18.40
2017-11-06T16:55:16.456Z,23.20
2017-11-06T16:57:43.949Z,21.03
2017-11-06T17:00:11.443Z,22.23
2017-11-06T17:02:39.037Z,21.73
2017-11-06T17:05:06.520Z,17.97
2017-11-06T17:07:34.048Z,16.67
2017-11-06T17:10:01.545Z,16.40
2017-11-06T17:12:29.031Z,13.00
2017-11-06T17:14:56.678Z,20.37
2017-11-06T17:17:24.174Z,18.17
2017-11-06T17:19:51.663Z,18.33
2017-11-06T17:22:19.201Z,22.90
2017-11-06T17:24:46.756Z,15.77
2017-11-06T17:27:14.266Z,20.40
2017-11-06T17:29:41.896Z,28.33
2017-11-06T17:32:09.396Z,26.13
2017-11-06T17:34:36.888Z,33.97
2017-11-06T17:37:04.405Z,18.17
2017-11-06T17:39:31.997Z,26.27
2017-11-06T17:41:59.484Z,22.73
2017-11-06T17:44:27.038Z,28.30
2017-11-06T17:46:54.583Z,30.33
2017-11-06T17:49:22.094Z,23.13
2017-11-06T17:51:50.027Z,25.63
2017-11-06T17:54:17.558Z,31.80
2017-11-06T17:56:45.063Z,25.37
2017-11-06T17:59:12.553Z,29.20
2017-11-06T18:01:40.080Z,27.17
2017-11-06T18:04:07.593Z,37.70
2017-11-06T18:06:35.084Z,36.77
2017-11-06T18:09:02.643Z,37.57
2017-11-06T18:11:30.187Z,18.73
2017-11-06T18:13:57.683Z,26.67
2017-11-06T18:16:25.202Z,36.30
2017-11-06T18:18:52.719Z,31.53
2017-11-06T18:21:20.218Z,25.47
2017-11-06T18:23:47.708Z,30.13
2017-11-06T18:26:15.244Z,32.30
2017-11-06T18:28:42.737Z,30.50
2017-11-06T18:31:10.233Z,26.20
2017-11-06T18:33:37.822Z,28.63
2017-11-06T18:36:05.316Z,30.47
2017-11-06T18:38:32.804Z,23.60
2017-11-06T18:41:00.342Z,36.20
2017-11-06T18:43:27.860Z,32.33
2017-11-06T18:45:55.403Z,32.33
2017-11-06T18:48:22.935Z,29.90
2017-11-06T18:50:50.441Z,29.37
2017-11-06T18:53:17.935Z,27.93
2017-11-06T18:55:45.462Z,35.27
2017-11-06T18:58:12.957Z,31.20
2017-11-06T19:00:40.546Z,30.90
2017-11-06T19:03:08.063Z,32.50
2017-11-06T19:05:35.561Z,38.03
2017-11-06T19:08:03.044Z,40.23
2017-11-06T19:10:30.573Z,37.57
2017-11-06T19:12:58.134Z,39.77
2017-11-06T19:15:25.648Z,42.93
2017-11-06T19:17:53.179Z,49.27
2017-11-06T19:20:20.676Z,38.63
2017-11-06T19:22:48.178Z,38.87
2017-11-06T19:25:15.702Z,61.33
2017-11-06T19:27:43.192Z,36.20
2017-11-06T19:30:10.755Z,37.03
2017-11-06T19:32:38.289Z,41.60
2017-11-06T19:35:05.867Z,38.93
2017-11-06T19:37:33.420Z,51.30
2017-11-06T19:40:00.971Z,40.70
2017-11-06T19:42:28.550Z,44.70
2017-11-06T19:44:56.061Z,49.07
2017-11-06T19:47:23.626Z,46.07
2017-11-06T19:49:51.117Z,49.87
2017-11-06T19:52:18.615Z,49.83
2017-11-06T19:54:46.136Z,46.87
2017-11-06T19:57:13.640Z,53.50
2017-11-06T19:59:41.144Z,48.57
2017-11-06T20:02:08.689Z,45.03
2017-11-06T20:04:36.191Z,43.00
2017-11-06T20:07:03.681Z,47.73
2017-11-06T20:09:31.203Z,48.43
2017-11-06T20:11:58.697Z,50.30
2017-11-06T20:14:26.184Z,52.87
2017-11-06T20:16:53.760Z,54.30
2017-11-06T20:19:21.252Z,44.90
2017-11-06T20:21:50.019Z,50.57
2017-11-06T20:24:17.569Z,51.47
2017-11-06T20:26:45.115Z,46.10
2017-11-06T20:29:12.603Z,50.80
2017-11-06T20:31:40.128Z,49.60
2017-11-06T20:34:07.616Z,41.03
2017-11-06T20:36:35.106Z,45.67
2017-11-06T20:39:02.628Z,57.10
2017-11-06T20:41:30.123Z,56.63
2017-11-06T20:43:57.616Z,51.53
2017-11-06T20:46:25.144Z,49.00
2017-11-06T20:48:52.636Z,48.20
2017-11-06T20:51:20.127Z,64.50
2017-11-06T20:53:47.775Z,51.97
2017-11-06T20:56:15.269Z,47.83
2017-11-06T20:58:42.773Z,69.07
2017-11-06T21:01:10.360Z,54.87
2017-11-06T21:03:37.854Z,49.80
2017-11-06T21:06:05.344Z,50.53
2017-11-06T21:08:32.925Z,54.83
2017-11-06T21:11:00.483Z,47.10
2017-11-06T21:13:27.983Z,55.73
2017-11-06T21:15:55.595Z,63.97
2017-11-06T21:18:23.093Z,51.83
2017-11-06T21:20:50.615Z,53.50
2017-11-06T21:23:18.170Z,60.23
2017-11-06T21:25:45.660Z,57.13
2017-11-06T21:28:13.204Z,58.77
2017-11-06T21:30:46.257Z,51.93
2017-11-06T21:33:13.839Z,52.27
2017-11-06T21:35:41.329Z,53.23
2017-11-06T21:38:09.060Z,45.17
2017-11-06T21:40:36.558Z,46.80
2017-11-06T21:43:04.066Z,51.93
2017-11-06T21:45:31.614Z,47.37
2017-11-06T21:47:59.105Z,56.17
2017-11-06T21:50:26.593Z,58.70
2017-11-06T21:52:54.203Z,55.30
2017-11-06T21:55:21.695Z,57.00
2017-11-06T21:57:49.205Z,46.20
2017-11-06T22:00:16.894Z,49.70
2017-11-06T22:02:44.463Z,50.40
2017-11-06T22:05:12.010Z,48.70
2017-11-06T22:07:39.544Z,49.10
2017-11-06T22:13:37.874Z,54.83
2017-11-06T22:16:05.372Z,54.77
2017-11-06T22:18:32.864Z,51.80
2017-11-06T22:21:00.401Z,55.30
2017-11-06T22:23:28.000Z,58.60
2017-11-06T22:25:55.556Z,60.90
2017-11-06T22:28:23.084Z,69.33
2017-11-06T22:30:50.578Z,60.83
2017-11-06T22:33:18.139Z,62.10
2017-11-06T22:35:45.797Z,56.90
2017-11-06T22:38:13.354Z,63.07
2017-11-06T22:40:40.845Z,60.70
2017-11-06T22:43:08.389Z,53.33
2017-11-06T22:45:35.876Z,64.50
2017-11-06T22:48:03.388Z,51.23
2017-11-06T22:50:30.900Z,54.73
2017-11-06T22:52:58.404Z,57.07
2017-11-06T22:55:25.899Z,52.97
2017-11-06T22:57:53.413Z,56.97
2017-11-06T23:00:22.819Z,51.97
2017-11-06T23:02:50.336Z,63.70
2017-11-06T23:05:17.934Z,52.00
2017-11-06T23:07:45.430Z,57.53
2017-11-06T23:10:12.926Z,48.17
2017-11-06T23:12:40.456Z,55.57
2017-11-06T23:15:07.948Z,60.70
2017-11-06T23:17:35.434Z,63.77
2017-11-06T23:20:02.944Z,57.30
2017-11-06T23:22:30.555Z,71.23
2017-11-06T23:24:58.113Z,67.43
2017-11-06T23:27:25.609Z,58.87
2017-11-06T23:29:53.143Z,64.27
2017-11-06T23:32:20.643Z,70.73
2017-11-06T23:34:48.143Z,68.00
2017-11-06T23:37:15.671Z,68.53
2017-11-06T23:39:43.174Z,61.43
2017-11-06T23:42:10.660Z,67.90
2017-11-06T23:44:38.186Z,71.27
2017-11-06T23:47:05.677Z,64.63
2017-11-06T23:49:33.192Z,68.67
2017-11-06T23:52:00.672Z,89.70
2017-11-06T23:54:28.169Z,93.93
2017-11-06T23:56:55.703Z,73.27
2017-11-06T23:59:23.188Z,80.50
